Time;durP1;ratioP1;P1;durP2;ratioP2;P2;SDS_P1;SDS_P2;PMS_P1;PMS_P2;Temp;Humidity;BMP_temperature;BMP_pressure;BME280_temperature;BME280_humidity;BME280_pressure;Samples;Min_cycle;Max_cycle;Signal;HPM_P1;HPM_P2
2022/10/20 00:01:19;;;;;;;32.53;22.20;;;10.20;99.90;;;;;;5031365;28;20030;-77
2022/10/20 00:03:46;;;;;;;29.37;21.07;;;10.20;99.90;;;;;;5031565;28;20029;-77
2022/10/20 00:06:17;;;;;;;29.05;21.10;;;10.30;99.90;;;;;;5030497;28;20033;-77
2022/10/20 00:08:44;;;;;;;32.17;21.48;;;10.30;99.90;;;;;;5031372;28;20115;-77
2022/10/20 00:11:12;;;;;;;35.80;23.15;;;10.40;99.90;;;;;;5031384;28;20036;-77
2022/10/20 00:13:39;;;;;;;33.78;23.45;;;10.40;99.90;;;;;;5031152;28;20032;-77
2022/10/20 00:16:05;;;;;;;35.30;23.38;;;10.40;99.90;;;;;;5031281;28;20025;-77
2022/10/20 00:18:31;;;;;;;39.08;23.25;;;10.40;99.90;;;;;;5031202;28;20037;-77
2022/10/20 00:20:57;;;;;;;39.42;24.08;;;10.50;99.90;;;;;;5031161;28;20048;-77
2022/10/20 00:23:23;;;;;;;36.17;22.67;;;10.50;99.90;;;;;;5031003;28;20025;-77
2022/10/20 00:26:10;;;;;;;39.67;23.88;;;10.50;99.90;;;;;;5030935;28;20022;-77
2022/10/20 00:28:36;;;;;;;41.05;26.13;;;10.60;99.90;;;;;;5030680;28;20037;-77
2022/10/20 00:31:03;;;;;;;48.63;29.20;;;10.60;99.90;;;;;;5028074;28;20029;-77
2022/10/20 00:33:29;;;;;;;53.47;31.58;;;10.60;99.90;;;;;;5030983;28;20401;-77
2022/10/20 00:35:58;;;;;;;58.53;33.38;;;10.70;99.90;;;;;;5029821;28;20036;-77
2022/10/20 00:38:23;;;;;;;67.25;37.05;;;10.80;99.90;;;;;;5030558;28;20025;-77
2022/10/20 00:40:49;;;;;;;65.43;35.17;;;10.80;99.90;;;;;;5030628;28;20072;-77
2022/10/20 00:43:16;;;;;;;61.42;36.00;;;10.90;99.90;;;;;;5030765;28;20406;-77
2022/10/20 00:45:43;;;;;;;65.32;36.38;;;10.90;99.90;;;;;;5030906;28;20041;-77
2022/10/20 00:48:16;;;;;;;59.83;33.65;;;10.90;99.90;;;;;;5030924;28;20037;-77
2022/10/20 00:50:46;;;;;;;43.70;28.98;;;11.00;99.90;;;;;;5029892;28;20025;-77
2022/10/20 00:53:12;;;;;;;48.13;28.67;;;11.00;99.90;;;;;;5030497;28;20022;-77
2022/10/20 00:55:41;;;;;;;52.28;31.35;;;10.90;99.90;;;;;;5031043;28;20439;-77
2022/10/20 00:58:07;;;;;;;56.22;30.52;;;10.90;99.90;;;;;;5030667;28;20032;-77
2022/10/20 01:00:33;;;;;;;50.65;31.23;;;10.90;99.90;;;;;;5030778;28;20037;-76
2022/10/20 01:03:01;;;;;;;54.03;31.10;;;10.90;99.90;;;;;;5030533;28;20495;-77
2022/10/20 01:05:27;;;;;;;49.55;30.23;;;10.90;99.90;;;;;;5030791;28;20030;-77
2022/10/20 01:07:53;;;;;;;48.70;30.00;;;10.90;99.90;;;;;;5030757;28;20501;-77
2022/10/20 01:10:19;;;;;;;57.60;30.30;;;10.90;99.90;;;;;;5030669;28;20030;-77
2022/10/20 01:13:04;;;;;;;49.13;30.50;;;10.90;99.90;;;;;;5019102;28;20029;-77
2022/10/20 01:15:43;;;;;;;;;;;10.90;99.90;;;;;;5018470;28;20462;-77
2022/10/20 01:18:14;;;;;;;59.85;33.78;;;10.90;99.90;;;;;;5030686;28;19909;-77
2022/10/20 01:21:13;;;;;;;68.18;36.67;;;11.00;99.90;;;;;;5029506;28;20086;-77
2022/10/20 01:23:56;;;;;;;69.68;37.80;;;11.00;99.90;;;;;;5030543;28;20128;-77
2022/10/20 01:26:56;;;;;;;67.82;39.15;;;11.00;99.90;;;;;;5030311;28;20482;-77
2022/10/20 01:29:33;;;;;;;70.05;38.50;;;11.10;99.90;;;;;;5019980;28;20048;-77
2022/10/20 01:32:17;;;;;;;69.97;39.50;;;11.10;99.90;;;;;;5023570;28;20129;-77
2022/10/20 01:35:07;;;;;;;66.57;37.90;;;11.20;99.90;;;;;;5019427;28;20025;-77
2022/10/20 01:38:02;;;;;;;60.63;36.20;;;11.20;99.90;;;;;;5030221;28;20018;-77
2022/10/20 01:40:45;;;;;;;62.25;36.25;;;11.20;99.90;;;;;;5030085;28;20049;-77
2022/10/20 01:43:17;;;;;;;69.70;38.10;;;11.20;99.90;;;;;;5028893;28;20132;-77
2022/10/20 01:45:45;;;;;;;67.30;36.70;;;11.20;99.90;;;;;;5030227;28;20032;-77
2022/10/20 01:48:13;;;;;;;60.05;37.22;;;11.20;99.90;;;;;;5033594;28;20068;-77
2022/10/20 01:50:40;;;;;;;65.38;38.65;;;11.10;99.90;;;;;;5033654;28;20032;-77
2022/10/20 01:53:06;;;;;;;68.05;37.88;;;11.10;99.90;;;;;;5033632;28;20026;-77
2022/10/20 01:55:32;;;;;;;68.93;37.65;;;11.10;99.90;;;;;;5032446;28;20430;-77
2022/10/20 01:58:08;;;;;;;60.10;35.10;;;11.20;99.90;;;;;;5033551;28;20045;-77
2022/10/20 02:00:36;;;;;;;62.50;36.92;;;11.10;99.90;;;;;;5033662;28;20422;-77
2022/10/20 02:03:35;;;;;;;66.15;34.80;;;11.10;99.90;;;;;;5033385;28;20470;-77
2022/10/20 02:06:36;;;;;;;68.57;36.25;;;11.10;99.90;;;;;;5033451;28;20056;-77
2022/10/20 02:09:10;;;;;;;60.42;36.55;;;11.10;99.90;;;;;;5033313;28;20099;-77
2022/10/20 02:12:12;;;;;;;56.95;34.58;;;11.10;99.90;;;;;;5033060;28;20024;-78
2022/10/20 02:14:38;;;;;;;58.85;35.60;;;11.10;99.90;;;;;;5033075;28;20021;-78
2022/10/20 02:17:11;;;;;;;64.97;34.00;;;11.10;99.90;;;;;;5031637;28;20466;-78
2022/10/20 02:19:40;;;;;;;55.22;33.42;;;11.10;99.90;;;;;;5033011;28;20021;-77
2022/10/20 02:22:08;;;;;;;62.08;34.25;;;11.00;99.90;;;;;;5033122;28;20112;-77
2022/10/20 02:24:38;;;;;;;67.20;35.88;;;11.10;99.90;;;;;;5032893;28;20029;-77
2022/10/20 02:27:12;;;;;;;62.47;36.47;;;11.10;99.90;;;;;;5033088;28;20037;-77
2022/10/20 02:29:43;;;;;;;60.80;34.70;;;11.10;99.90;;;;;;5025202;28;20109;-77
2022/10/20 02:32:11;;;;;;;58.05;34.75;;;11.10;99.90;;;;;;5029743;28;20412;-77
2022/10/20 02:34:37;;;;;;;62.85;34.83;;;11.10;99.90;;;;;;5032827;28;20025;-77
2022/10/20 02:37:02;;;;;;;60.92;34.47;;;11.00;99.90;;;;;;5032444;28;20034;-77
2022/10/20 02:39:28;;;;;;;57.95;33.00;;;11.00;99.90;;;;;;5032534;28;20107;-80
2022/10/20 02:41:53;;;;;;;57.35;34.47;;;11.00;99.90;;;;;;5031816;28;20025;-80
2022/10/20 02:44:19;;;;;;;62.70;35.05;;;11.00;99.90;;;;;;5031996;28;20760;-80
2022/10/20 02:46:45;;;;;;;66.05;35.17;;;11.00;99.90;;;;;;5032019;28;20040;-80
2022/10/20 02:49:10;;;;;;;62.47;34.92;;;11.00;99.90;;;;;;5029754;28;20053;-80
2022/10/20 02:51:36;;;;;;;60.30;35.50;;;11.00;99.90;;;;;;5026874;28;20105;-80
2022/10/20 02:54:02;;;;;;;64.18;35.15;;;10.90;99.90;;;;;;5027786;28;20423;-80
2022/10/20 02:56:27;;;;;;;61.67;35.47;;;11.00;99.90;;;;;;5031875;28;20025;-80
2022/10/20 02:58:53;;;;;;;64.43;34.92;;;10.90;99.90;;;;;;5030603;28;20025;-80
2022/10/20 03:01:18;;;;;;;56.53;33.78;;;10.90;99.90;;;;;;5031596;28;20025;-80
2022/10/20 03:03:44;;;;;;;55.60;32.72;;;10.90;99.90;;;;;;5029947;28;20029;-80
2022/10/20 03:06:14;;;;;;;52.38;32.58;;;10.90;99.90;;;;;;5024595;28;20033;-80
2022/10/20 03:08:41;;;;;;;60.65;34.65;;;10.90;99.90;;;;;;5031237;28;20022;-80
2022/10/20 03:11:06;;;;;;;67.20;33.65;;;10.90;99.90;;;;;;5029902;28;20036;-80
2022/10/20 03:13:32;;;;;;;55.80;34.38;;;10.90;99.90;;;;;;5028093;28;20362;-80
2022/10/20 03:15:58;;;;;;;58.75;32.67;;;10.90;99.90;;;;;;5031152;28;20045;-80
2022/10/20 03:18:23;;;;;;;57.13;34.10;;;10.90;99.90;;;;;;5031361;28;20029;-80
2022/10/20 03:20:53;;;;;;;55.50;32.88;;;10.90;99.90;;;;;;5031233;28;20139;-80
2022/10/20 03:23:19;;;;;;;58.42;34.00;;;10.90;99.90;;;;;;5030368;28;20108;-80
2022/10/20 03:25:44;;;;;;;63.38;33.53;;;10.90;99.90;;;;;;5031368;28;20882;-80
2022/10/20 03:28:10;;;;;;;51.17;32.25;;;10.80;99.90;;;;;;5030985;28;20207;-80
2022/10/20 03:30:35;;;;;;;71.07;34.95;;;10.80;99.90;;;;;;5028032;28;20125;-79
2022/10/20 03:33:01;;;;;;;51.72;32.65;;;10.80;99.90;;;;;;5024570;28;20363;-80
2022/10/20 03:35:27;;;;;;;59.67;33.35;;;10.80;99.90;;;;;;5030711;28;20136;-80
2022/10/20 03:37:52;;;;;;;57.75;33.17;;;10.80;99.90;;;;;;5030156;28;20025;-80
2022/10/20 03:40:18;;;;;;;57.00;34.20;;;10.80;99.90;;;;;;5019965;28;20046;-80
2022/10/20 03:42:43;;;;;;;64.00;34.40;;;10.80;99.90;;;;;;5030753;28;20018;-80
2022/10/20 03:45:09;;;;;;;57.60;34.38;;;10.80;99.90;;;;;;5030714;28;20025;-80
2022/10/20 03:47:36;;;;;;;62.30;34.38;;;10.70;99.90;;;;;;5030671;28;20109;-80
2022/10/20 03:50:02;;;;;;;71.30;34.67;;;10.70;99.90;;;;;;5030258;28;20113;-80
2022/10/20 03:52:28;;;;;;;61.08;34.03;;;10.70;99.90;;;;;;5030482;28;20044;-80
2022/10/20 03:54:54;;;;;;;65.13;34.60;;;10.70;99.90;;;;;;5029360;28;20469;-80
2022/10/20 03:57:19;;;;;;;68.43;35.13;;;10.70;99.90;;;;;;5030418;28;20033;-80
2022/10/20 03:59:45;;;;;;;60.38;33.83;;;10.70;99.90;;;;;;5025126;28;20026;-80
2022/10/20 04:02:37;;;;;;;57.47;35.85;;;10.70;99.90;;;;;;5015002;28;20030;-80
2022/10/20 04:05:03;;;;;;;64.47;34.58;;;10.70;99.90;;;;;;5018945;28;20366;-80
2022/10/20 04:07:28;;;;;;;65.00;36.75;;;10.70;99.90;;;;;;5030089;28;20029;-80
2022/10/20 04:09:54;;;;;;;59.38;35.20;;;10.70;99.90;;;;;;5029994;28;20029;-80
2022/10/20 04:12:20;;;;;;;66.55;36.10;;;10.60;99.90;;;;;;5030332;28;20029;-77
2022/10/20 04:14:47;;;;;;;63.97;35.05;;;10.60;99.90;;;;;;5030695;28;20025;-76
2022/10/20 04:17:13;;;;;;;65.55;35.95;;;10.60;99.90;;;;;;5024213;28;20029;-80
2022/10/20 04:19:38;;;;;;;63.05;35.70;;;10.60;99.90;;;;;;5030246;28;20486;-80
2022/10/20 04:22:04;;;;;;;63.47;36.40;;;10.60;99.90;;;;;;5027338;28;20099;-80
2022/10/20 04:24:29;;;;;;;58.53;35.10;;;10.60;99.90;;;;;;5029943;28;20025;-80
2022/10/20 04:26:55;;;;;;;64.80;35.33;;;10.60;99.90;;;;;;5030136;28;20057;-80
2022/10/20 04:29:20;;;;;;;58.05;34.88;;;10.60;99.90;;;;;;5028444;28;20395;-80
2022/10/20 04:31:46;;;;;;;62.50;34.25;;;10.60;99.90;;;;;;5020622;28;20129;-80
2022/10/20 04:34:12;;;;;;;67.03;35.17;;;10.50;99.90;;;;;;5029919;28;20088;-81
2022/10/20 04:36:37;;;;;;;62.57;34.43;;;10.60;99.90;;;;;;5024255;28;20022;-80
2022/10/20 04:39:07;;;;;;;62.65;35.05;;;10.60;99.90;;;;;;5028451;28;20041;-80
2022/10/20 04:41:33;;;;;;;66.20;35.05;;;10.60;99.90;;;;;;5029602;28;20030;-81
2022/10/20 04:43:58;;;;;;;62.80;34.10;;;10.60;99.90;;;;;;5029728;28;20506;-80
2022/10/20 04:46:25;;;;;;;56.15;32.17;;;10.50;99.90;;;;;;5027025;28;20033;-80
2022/10/20 04:48:51;;;;;;;62.58;32.95;;;10.60;99.90;;;;;;5028850;28;20029;-80
2022/10/20 04:51:17;;;;;;;67.28;37.05;;;10.50;99.90;;;;;;5029519;28;20033;-80
2022/10/20 04:53:43;;;;;;;57.63;33.03;;;10.50;99.90;;;;;;5029797;28;20124;-80
2022/10/20 04:56:13;;;;;;;58.53;33.03;;;10.50;99.90;;;;;;5029655;28;20036;-80
2022/10/20 04:58:39;;;;;;;65.22;32.40;;;10.50;99.90;;;;;;5030154;28;20030;-80
2022/10/20 05:01:08;;;;;;;64.07;36.55;;;10.50;99.90;;;;;;5032015;28;20040;-80
2022/10/20 05:03:35;;;;;;;59.83;33.50;;;10.40;99.90;;;;;;5032204;28;20097;-82
2022/10/20 05:06:07;;;;;;;68.00;34.67;;;10.40;99.90;;;;;;5031616;28;20095;-79
2022/10/20 05:08:33;;;;;;;62.47;34.78;;;10.40;99.90;;;;;;5009097;28;20047;-79
2022/10/20 05:11:00;;;;;;;69.15;35.28;;;10.40;99.90;;;;;;5031612;28;20097;-80
2022/10/20 05:13:25;;;;;;;61.07;35.10;;;10.40;99.90;;;;;;5020696;28;20548;-80
2022/10/20 05:15:54;;;;;;;64.78;34.67;;;10.40;99.90;;;;;;5021733;28;20022;-80
2022/10/20 05:18:19;;;;;;;66.28;35.17;;;10.30;99.90;;;;;;5030594;28;20037;-80
2022/10/20 05:20:45;;;;;;;59.97;35.00;;;10.30;99.90;;;;;;5029667;28;20026;-80
2022/10/20 05:23:10;;;;;;;66.60;36.60;;;10.30;99.90;;;;;;5035371;28;20224;-80
2022/10/20 05:25:37;;;;;;;69.10;35.58;;;10.30;99.90;;;;;;5035568;28;20030;-80
2022/10/20 05:28:03;;;;;;;58.28;33.80;;;10.30;99.90;;;;;;5021609;28;20030;-80
2022/10/20 05:30:29;;;;;;;61.20;34.23;;;10.30;99.90;;;;;;5035118;28;20527;-80
2022/10/20 05:32:54;;;;;;;63.67;34.80;;;10.30;99.90;;;;;;5029768;28;20029;-80
2022/10/20 05:35:20;;;;;;;63.13;33.50;;;10.30;99.90;;;;;;5033865;28;20056;-80
2022/10/20 05:37:45;;;;;;;60.15;34.95;;;10.30;99.90;;;;;;5034992;28;20026;-80
2022/10/20 05:40:11;;;;;;;72.05;37.20;;;10.20;99.90;;;;;;5029944;28;20081;-80
2022/10/20 05:42:37;;;;;;;67.55;34.70;;;10.20;99.90;;;;;;5026276;28;20053;-80
2022/10/20 05:45:04;;;;;;;68.20;35.80;;;10.20;99.90;;;;;;5035145;28;20448;-80
2022/10/20 05:47:29;;;;;;;58.80;33.20;;;10.20;99.90;;;;;;5035396;28;20057;-80
2022/10/20 05:49:55;;;;;;;63.73;35.17;;;10.20;99.90;;;;;;5034880;28;20053;-80
2022/10/20 05:52:21;;;;;;;61.17;33.43;;;10.20;99.90;;;;;;5033621;28;20422;-80
2022/10/20 05:54:46;;;;;;;59.77;34.97;;;10.20;99.90;;;;;;5034744;28;20018;-80
2022/10/20 05:57:12;;;;;;;61.20;35.47;;;10.10;99.90;;;;;;5028645;28;20067;-80
2022/10/20 05:59:37;;;;;;;60.03;34.60;;;10.20;99.90;;;;;;5034731;28;20034;-80
2022/10/20 06:02:03;;;;;;;60.77;34.57;;;10.10;99.90;;;;;;5022996;28;20052;-80
2022/10/20 06:04:30;;;;;;;53.95;33.28;;;10.10;99.90;;;;;;5028734;28;20497;-81
2022/10/20 06:06:56;;;;;;;63.65;34.75;;;10.10;99.90;;;;;;5028482;28;20025;-80
2022/10/20 06:09:23;;;;;;;67.47;35.10;;;10.10;99.90;;;;;;5030263;28;20048;-80
2022/10/20 06:11:50;;;;;;;74.67;35.90;;;10.10;99.90;;;;;;5037437;28;20029;-81
2022/10/20 06:14:16;;;;;;;64.55;34.60;;;10.10;99.90;;;;;;5030246;28;20029;-80
2022/10/20 06:16:43;;;;;;;68.67;35.30;;;10.10;99.90;;;;;;5030405;28;20026;-80
2022/10/20 06:19:15;;;;;;;70.23;36.27;;;10.10;99.90;;;;;;5030445;28;20099;-80
2022/10/20 06:21:41;;;;;;;70.97;36.30;;;10.10;99.90;;;;;;5028394;28;20022;-80
2022/10/20 06:24:08;;;;;;;60.05;34.15;;;10.10;99.90;;;;;;5029303;28;20477;-80
2022/10/20 06:26:35;;;;;;;66.85;34.72;;;10.10;99.90;;;;;;5028792;28;20466;-80
2022/10/20 06:29:12;;;;;;;64.63;33.77;;;10.00;99.90;;;;;;5028576;28;20112;-80
2022/10/20 06:31:44;;;;;;;62.55;33.22;;;10.00;99.90;;;;;;5028195;28;20040;-80
2022/10/20 06:34:13;;;;;;;64.17;33.90;;;10.00;99.90;;;;;;5029004;28;20022;-80
2022/10/20 06:36:40;;;;;;;61.90;33.53;;;10.00;99.90;;;;;;5030676;28;20075;-80
2022/10/20 06:39:09;;;;;;;56.63;31.60;;;10.00;99.90;;;;;;5030572;28;20061;-80
2022/10/20 06:41:37;;;;;;;65.88;34.40;;;10.00;99.90;;;;;;5030842;28;20083;-80
2022/10/20 06:44:03;;;;;;;62.70;34.13;;;10.00;99.90;;;;;;5029449;28;20076;-80
2022/10/20 06:46:31;;;;;;;65.18;34.55;;;10.00;99.90;;;;;;5030681;28;20087;-80
2022/10/20 06:48:59;;;;;;;62.07;33.87;;;10.00;99.90;;;;;;5030123;28;20061;-81
2022/10/20 06:51:25;;;;;;;57.63;32.73;;;10.00;99.90;;;;;;5029778;28;20017;-80
2022/10/20 06:53:51;;;;;;;58.90;31.90;;;10.00;99.90;;;;;;5029729;28;20095;-80
2022/10/20 06:56:19;;;;;;;67.57;33.23;;;10.10;99.90;;;;;;5030805;28;20018;-80
2022/10/20 06:58:47;;;;;;;59.50;31.83;;;10.10;99.90;;;;;;5029795;28;20035;-80
2022/10/20 07:01:14;;;;;;;58.30;32.67;;;10.10;99.90;;;;;;5038329;28;20386;-81
2022/10/20 07:03:40;;;;;;;51.77;30.30;;;10.10;99.90;;;;;;5029923;28;20072;-81
2022/10/20 07:06:07;;;;;;;52.17;29.83;;;10.20;99.90;;;;;;5030500;28;20022;-80
2022/10/20 07:08:34;;;;;;;54.10;30.07;;;10.20;99.90;;;;;;5024900;28;20022;-80
2022/10/20 07:11:01;;;;;;;65.93;31.52;;;10.20;99.90;;;;;;5030635;28;20083;-81
2022/10/20 07:13:28;;;;;;;61.83;31.13;;;10.20;99.90;;;;;;5029882;28;20668;-81
2022/10/20 07:15:56;;;;;;;60.67;32.47;;;10.20;99.90;;;;;;5025600;28;20112;-77
2022/10/20 07:18:22;;;;;;;55.30;32.07;;;10.20;99.90;;;;;;5022971;28;21218;-77
2022/10/20 07:20:48;;;;;;;60.50;30.63;;;10.20;99.90;;;;;;5024023;28;20070;-77
2022/10/20 07:23:13;;;;;;;63.07;31.07;;;10.20;99.90;;;;;;5027295;28;20699;-77
2022/10/20 07:25:39;;;;;;;59.25;32.20;;;10.20;99.90;;;;;;5023474;28;20020;-77
2022/10/20 07:28:04;;;;;;;55.50;32.03;;;10.20;99.90;;;;;;5024769;28;20025;-77
2022/10/20 07:30:30;;;;;;;52.85;31.10;;;10.30;99.90;;;;;;5024013;28;20307;-77
2022/10/20 07:32:55;;;;;;;52.08;30.00;;;10.40;99.90;;;;;;5024856;28;20053;-76
2022/10/20 07:35:21;;;;;;;58.83;31.80;;;10.40;99.90;;;;;;5024314;28;20091;-77
2022/10/20 07:37:47;;;;;;;56.05;30.55;;;10.50;99.90;;;;;;5024288;28;20029;-77
2022/10/20 07:40:12;;;;;;;54.78;29.92;;;10.50;99.90;;;;;;5024677;28;20053;-77
2022/10/20 07:42:38;;;;;;;52.20;28.30;;;10.60;99.90;;;;;;5025279;28;20083;-77
2022/10/20 07:45:04;;;;;;;49.30;29.00;;;10.70;99.90;;;;;;5023201;28;20029;-77
2022/10/20 07:47:29;;;;;;;45.70;26.52;;;10.70;99.90;;;;;;5025015;28;20030;-77
2022/10/20 07:49:55;;;;;;;46.47;27.00;;;10.80;99.90;;;;;;5023539;28;20047;-77
2022/10/20 07:52:20;;;;;;;49.40;27.63;;;10.90;99.90;;;;;;5023775;28;20044;-77
2022/10/20 07:54:46;;;;;;;46.20;27.88;;;10.90;99.90;;;;;;5023888;28;20048;-77
2022/10/20 07:57:11;;;;;;;47.80;27.67;;;11.00;99.90;;;;;;5024418;28;20129;-77
2022/10/20 07:59:37;;;;;;;41.25;25.83;;;11.00;99.90;;;;;;5024041;28;20026;-77
2022/10/20 08:02:03;;;;;;;45.80;27.05;;;11.00;99.90;;;;;;5023284;28;20143;-77
2022/10/20 08:04:30;;;;;;;46.58;27.25;;;11.10;99.90;;;;;;5021883;28;20636;-77
2022/10/20 08:06:56;;;;;;;33.95;22.95;;;11.20;99.90;;;;;;5023777;28;20030;-77
2022/10/20 08:09:22;;;;;;;34.85;23.02;;;11.20;99.90;;;;;;5023556;28;20095;-77
2022/10/20 08:11:48;;;;;;;35.58;22.45;;;11.20;99.90;;;;;;5024688;28;20386;-77
2022/10/20 08:14:13;;;;;;;33.70;22.38;;;11.20;99.90;;;;;;5023311;28;20021;-77
2022/10/20 08:16:39;;;;;;;31.58;21.48;;;11.30;99.90;;;;;;5023915;28;20028;-77
2022/10/20 08:19:04;;;;;;;31.38;20.02;;;11.40;99.90;;;;;;5024489;28;20108;-77
2022/10/20 08:21:31;;;;;;;31.08;20.92;;;11.40;99.90;;;;;;5025124;28;20159;-85
2022/10/20 08:23:56;;;;;;;37.10;23.02;;;11.50;99.90;;;;;;5025680;28;20040;-80
2022/10/20 08:26:24;;;;;;;40.33;24.05;;;11.50;99.90;;;;;;5024830;28;20026;-80
2022/10/20 08:28:51;;;;;;;39.50;22.60;;;11.50;99.90;;;;;;5024318;28;20029;-80
2022/10/20 08:31:17;;;;;;;36.13;22.35;;;11.50;99.90;;;;;;5024356;28;20052;-80
2022/10/20 08:33:43;;;;;;;40.72;26.55;;;11.50;99.90;;;;;;5029180;28;20025;-80
2022/10/20 08:36:12;;;;;;;31.38;20.30;;;11.50;99.90;;;;;;5025120;28;20033;-80
2022/10/20 08:38:38;;;;;;;80.93;52.95;;;11.50;99.90;;;;;;5024350;28;20090;-80
2022/10/20 08:41:11;;;;;;;37.40;24.83;;;11.60;99.90;;;;;;5024516;28;20502;-80
2022/10/20 08:43:40;;;;;;;35.72;23.67;;;11.70;99.90;;;;;;5023621;28;20112;-80
2022/10/20 08:46:11;;;;;;;45.25;27.15;;;11.70;99.90;;;;;;5025316;28;20356;-80
2022/10/20 08:48:37;;;;;;;39.10;24.00;;;11.70;99.90;;;;;;5023983;28;20038;-80
2022/10/20 08:51:03;;;;;;;43.17;24.73;;;11.70;99.90;;;;;;5024721;28;21103;-80
2022/10/20 08:53:37;;;;;;;39.67;23.23;;;11.70;99.90;;;;;;5024500;28;20040;-80
2022/10/20 08:56:02;;;;;;;29.65;21.10;;;11.70;99.90;;;;;;5023593;28;20033;-80
2022/10/20 08:58:28;;;;;;;35.45;22.83;;;11.70;99.90;;;;;;5024918;28;20682;-80
2022/10/20 09:00:58;;;;;;;35.10;23.52;;;11.70;99.90;;;;;;5024635;28;20520;-80
2022/10/20 09:03:29;;;;;;;31.73;21.35;;;11.70;99.90;;;;;;5024938;28;20037;-80
2022/10/20 09:06:06;;;;;;;28.98;19.17;;;11.80;99.90;;;;;;5024237;28;20182;-80
2022/10/20 09:08:36;;;;;;;37.58;21.42;;;11.80;99.90;;;;;;5024264;28;20041;-80
2022/10/20 09:11:03;;;;;;;34.75;19.88;;;11.90;99.90;;;;;;5024849;28;20024;-80
2022/10/20 09:13:31;;;;;;;28.65;19.52;;;11.80;99.90;;;;;;5023576;28;20147;-80
2022/10/20 09:15:59;;;;;;;34.80;20.15;;;11.90;99.90;;;;;;5024837;28;20029;-80
2022/10/20 09:18:25;;;;;;;27.08;17.85;;;11.80;99.90;;;;;;5024916;28;20462;-80
2022/10/20 09:20:54;;;;;;;29.75;17.80;;;11.90;99.90;;;;;;5025192;28;20117;-80
2022/10/20 09:23:23;;;;;;;31.48;18.10;;;11.80;99.90;;;;;;5024583;28;20033;-80
2022/10/20 09:25:51;;;;;;;23.80;18.02;;;11.70;99.90;;;;;;5024598;28;20028;-80
2022/10/20 09:28:25;;;;;;;23.55;17.02;;;11.70;99.90;;;;;;5021926;28;20025;-80
2022/10/20 09:30:52;;;;;;;24.55;15.55;;;11.70;99.90;;;;;;5023302;28;20036;-80
2022/10/20 09:33:30;;;;;;;22.38;15.48;;;11.70;99.90;;;;;;5025160;28;20056;-80
2022/10/20 09:36:04;;;;;;;42.13;27.23;;;11.80;99.90;;;;;;5025302;28;20120;-80
2022/10/20 09:38:32;;;;;;;40.22;24.35;;;11.90;99.90;;;;;;5025245;28;20108;-81
2022/10/20 09:41:15;;;;;;;25.52;17.73;;;11.90;99.90;;;;;;5025860;28;20033;-81
2022/10/20 09:43:52;;;;;;;21.42;16.65;;;11.80;99.90;;;;;;5022666;28;20029;-80
2022/10/20 09:46:22;;;;;;;21.25;15.70;;;11.80;99.90;;;;;;5026540;28;20052;-80
2022/10/20 09:48:49;;;;;;;22.73;16.67;;;11.80;99.90;;;;;;5024020;28;20096;-80
2022/10/20 09:51:19;;;;;;;23.80;16.17;;;11.80;99.90;;;;;;5024931;28;20026;-80
2022/10/20 09:53:51;;;;;;;21.75;16.25;;;11.90;99.90;;;;;;5023316;28;20105;-80
2022/10/20 09:56:26;;;;;;;20.25;15.35;;;11.90;99.90;;;;;;5026138;28;20116;-81
2022/10/20 09:58:52;;;;;;;24.40;15.30;;;12.00;99.90;;;;;;5029523;28;20040;-80
2022/10/20 10:01:18;;;;;;;33.72;25.65;;;12.10;99.90;;;;;;5029027;28;20386;-80
2022/10/20 10:03:45;;;;;;;23.70;17.30;;;12.20;99.90;;;;;;5024282;28;20056;-80
2022/10/20 10:06:36;;;;;;;20.80;14.32;;;12.30;99.90;;;;;;5028735;28;20049;-80
2022/10/20 10:09:03;;;;;;;23.05;15.15;;;12.40;99.90;;;;;;5017815;28;20036;-81
2022/10/20 10:11:35;;;;;;;19.20;14.93;;;12.40;99.90;;;;;;5029486;28;20049;-83
2022/10/20 10:14:02;;;;;;;19.08;13.82;;;12.50;99.90;;;;;;5028253;28;20037;-83
2022/10/20 10:16:40;;;;;;;23.33;16.35;;;12.70;99.90;;;;;;5035627;28;20021;-83
2022/10/20 10:19:16;;;;;;;18.30;13.77;;;12.70;99.90;;;;;;5028149;28;20022;-83
2022/10/20 10:21:54;;;;;;;22.52;17.63;;;12.80;99.90;;;;;;5035383;28;20048;-83
2022/10/20 10:24:47;;;;;;;17.52;13.02;;;12.80;99.90;;;;;;5028209;28;20026;-83
2022/10/20 10:27:35;;;;;;;19.15;13.48;;;12.80;99.90;;;;;;5028941;28;20512;-83
2022/10/20 10:30:22;;;;;;;36.15;24.27;;;12.90;99.90;;;;;;5035009;28;20046;-83
2022/10/20 10:32:48;;;;;;;20.88;12.52;;;13.20;99.90;;;;;;5030438;28;20418;-83
2022/10/20 10:35:36;;;;;;;20.13;12.65;;;13.40;99.90;;;;;;5035344;28;20025;-84
2022/10/20 10:38:01;;;;;;;19.77;12.30;;;13.70;99.90;;;;;;5035271;28;20036;-84
2022/10/20 10:40:45;;;;;;;20.25;14.07;;;13.90;99.90;;;;;;5034984;28;20053;-83
2022/10/20 10:43:28;;;;;;;14.63;11.23;;;14.20;99.90;;;;;;5034919;28;20116;-84
2022/10/20 10:45:59;;;;;;;16.05;11.43;;;14.50;99.90;;;;;;5033519;28;20038;-84
2022/10/20 10:48:44;;;;;;;20.73;12.48;;;14.70;99.90;;;;;;5035235;28;20021;-84
2022/10/20 10:51:25;;;;;;;17.02;10.15;;;14.70;99.90;;;;;;5034712;28;20041;-84
2022/10/20 10:54:04;;;;;;;14.65;10.32;;;14.80;99.90;;;;;;5033802;28;20041;-83
2022/10/20 10:56:39;;;;;;;17.77;12.00;;;15.00;99.90;;;;;;5032884;28;20021;-84
2022/10/20 10:59:11;;;;;;;13.98;9.60;;;15.10;99.90;;;;;;5031790;28;20577;-84
2022/10/20 11:01:54;;;;;;;12.43;9.52;;;15.20;99.90;;;;;;5033408;28;20425;-83
2022/10/20 11:04:51;;;;;;;14.05;9.65;;;15.20;99.90;;;;;;5033937;28;20026;-84
2022/10/20 11:07:24;;;;;;;16.17;9.90;;;15.20;99.90;;;;;;5029067;28;20049;-84
2022/10/20 11:10:11;;;;;;;14.23;8.55;;;15.10;99.90;;;;;;5041407;28;20077;-84
2022/10/20 11:12:59;;;;;;;16.00;9.18;;;15.10;99.90;;;;;;5032380;28;20486;-84
2022/10/20 11:15:27;;;;;;;14.18;8.73;;;15.00;99.90;;;;;;5033688;28;20466;-84
2022/10/20 11:18:08;;;;;;;17.02;7.97;;;15.10;99.90;;;;;;5033283;28;20029;-84
2022/10/20 11:21:16;;;;;;;10.93;8.38;;;15.20;99.90;;;;;;5031331;28;20029;-83
2022/10/20 11:24:29;;;;;;;14.38;8.30;;;15.30;99.90;;;;;;5015983;28;20041;-84
2022/10/20 11:27:08;;;;;;;12.82;7.65;;;15.40;99.90;;;;;;4990784;28;20162;-84
2022/10/20 11:29:41;;;;;;;11.50;9.05;;;15.40;99.90;;;;;;5027632;28;20041;-84
2022/10/20 11:32:18;;;;;;;13.27;8.07;;;15.40;99.90;;;;;;5032725;28;20078;-83
2022/10/20 11:35:14;;;;;;;13.63;8.65;;;15.60;99.90;;;;;;5032225;28;20424;-84
2022/10/20 11:37:49;;;;;;;11.55;7.55;;;15.70;99.90;;;;;;5031603;28;20100;-83
2022/10/20 11:40:29;;;;;;;11.60;7.97;;;15.90;99.90;;;;;;5032749;28;20049;-83
2022/10/20 11:43:19;;;;;;;12.40;8.43;;;15.90;99.90;;;;;;5030274;28;20037;-84
2022/10/20 11:45:50;;;;;;;11.23;7.70;;;15.90;99.90;;;;;;5032449;28;20021;-84
2022/10/20 11:48:36;;;;;;;13.70;7.68;;;15.80;99.90;;;;;;5032663;28;20021;-84
2022/10/20 11:51:11;;;;;;;13.55;7.65;;;15.90;99.90;;;;;;5032115;28;20041;-84
2022/10/20 11:54:13;;;;;;;11.73;7.65;;;16.00;99.90;;;;;;5031813;28;20029;-84
2022/10/20 11:56:47;;;;;;;16.02;8.93;;;15.90;99.90;;;;;;5032165;28;20036;-84
2022/10/20 11:59:48;;;;;;;31.75;18.45;;;15.90;99.90;;;;;;5032837;28;20021;-84
2022/10/20 12:02:24;;;;;;;24.00;15.30;;;15.80;99.90;;;;;;5031774;28;20057;-84
2022/10/20 12:05:21;;;;;;;22.27;10.30;;;15.90;99.90;;;;;;5030050;28;20048;-84
2022/10/20 12:07:50;;;;;;;13.13;7.95;;;15.90;99.90;;;;;;5032138;28;20367;-84
2022/10/20 12:10:35;;;;;;;17.05;11.32;;;16.00;99.90;;;;;;5032461;28;20026;-83
2022/10/20 12:13:16;;;;;;;15.65;7.90;;;16.00;99.90;;;;;;5029837;28;20029;-83
2022/10/20 12:15:47;;;;;;;15.43;7.05;;;16.10;99.90;;;;;;5031501;28;20375;-83
2022/10/20 12:18:31;;;;;;;15.57;7.55;;;16.20;99.90;;;;;;5029519;28;20113;-83
2022/10/20 12:21:09;;;;;;;13.90;6.63;;;16.20;99.90;;;;;;5032337;28;20044;-83
2022/10/20 12:23:44;;;;;;;18.25;9.77;;;16.30;99.90;;;;;;5032122;28;20052;-83
2022/10/20 12:26:28;;;;;;;17.67;11.40;;;16.30;99.90;;;;;;5032401;28;20083;-83
2022/10/20 12:28:58;;;;;;;15.00;7.43;;;16.40;99.90;;;;;;5031139;28;20351;-83
2022/10/20 12:31:27;;;;;;;9.13;7.28;;;16.40;99.90;;;;;;5031983;28;20469;-83
2022/10/20 12:33:58;;;;;;;11.80;6.28;;;16.40;99.90;;;;;;5032608;28;20013;-83
2022/10/20 12:36:36;;;;;;;11.35;6.35;;;16.40;99.90;;;;;;5032383;28;20044;-83
2022/10/20 12:39:13;;;;;;;16.73;7.18;;;16.40;99.90;;;;;;5031689;28;20136;-84
2022/10/20 12:41:44;;;;;;;13.80;6.93;;;16.40;99.90;;;;;;5031756;28;20025;-83
2022/10/20 12:44:16;;;;;;;13.68;6.60;;;16.40;99.90;;;;;;5031655;28;20026;-83
2022/10/20 12:47:03;;;;;;;9.77;6.20;;;16.40;99.90;;;;;;5031984;28;20042;-83